createdAt,value
2019-04-23T00:00:56.459Z,91.30
2019-04-23T00:03:23.786Z,91.30
2019-04-23T00:08:42.012Z,91.20
2019-04-23T00:10:58.741Z,91.10
2019-04-23T00:13:22.806Z,90.90
2019-04-23T00:16:03.034Z,90.90
2019-04-23T00:18:37.719Z,90.70
2019-04-23T00:21:15.526Z,90.60
2019-04-23T00:23:47.846Z,90.80
2019-04-23T00:26:19.806Z,90.40
2019-04-23T00:28:56.791Z,90.50
2019-04-23T00:31:18.373Z,90.40
2019-04-23T00:33:44.403Z,90.20
2019-04-23T00:36:23.049Z,90.10
2019-04-23T00:38:45.518Z,89.70
2019-04-23T00:41:15.965Z,90.00
2019-04-23T00:43:57.817Z,89.20
2019-04-23T00:46:23.421Z,89.10
2019-04-23T00:51:27.457Z,89.20
2019-04-23T00:53:51.857Z,89.30
2019-04-23T00:58:55.249Z,89.60
2019-04-23T01:01:26.586Z,89.70
2019-04-23T01:03:56.404Z,89.90
2019-04-23T01:06:24.301Z,89.70
2019-04-23T01:08:58.981Z,89.50
2019-04-23T01:11:27.666Z,90.00
2019-04-23T01:13:55.695Z,90.10
2019-04-23T01:16:29.907Z,90.00
2019-04-23T01:19:18.981Z,90.10
2019-04-23T01:21:19.925Z,90.30
2019-04-23T01:24:13.955Z,90.00
2019-04-23T01:29:58.619Z,90.30
2019-04-23T01:32:26.808Z,90.30
2019-04-23T01:35:09.688Z,90.40
2019-04-23T01:37:30.109Z,90.60
2019-04-23T01:39:57.905Z,90.40
2019-04-23T01:42:35.926Z,90.50
2019-04-23T01:45:10.934Z,90.50
2019-04-23T01:47:31.951Z,90.30
2019-04-23T01:50:08.317Z,90.50
2019-04-23T01:52:37.695Z,90.50
2019-04-23T01:55:10.002Z,90.60
2019-04-23T01:57:42.298Z,90.90
2019-04-23T02:00:08.819Z,90.70
2019-04-23T02:02:45.733Z,90.80
2019-04-23T02:07:35.662Z,91.10
2019-04-23T02:10:16.997Z,90.90
2019-04-23T02:12:42.056Z,91.00
2019-04-23T02:15:13.040Z,90.80
2019-04-23T02:17:45.510Z,90.80
2019-04-23T02:20:17.940Z,91.00
2019-04-23T02:25:44.569Z,91.00
2019-04-23T02:28:07.543Z,90.90
2019-04-23T02:33:34.430Z,91.00
2019-04-23T02:35:58.370Z,90.80
2019-04-23T02:38:44.383Z,91.20
2019-04-23T02:41:16.458Z,91.20
2019-04-23T02:43:53.322Z,91.30
2019-04-23T02:46:05.578Z,91.90
2019-04-23T02:48:50.015Z,91.80
2019-04-23T02:51:03.993Z,91.80
2019-04-23T02:53:47.174Z,91.70
2019-04-23T02:56:14.525Z,92.00
2019-04-23T02:58:43.254Z,92.10
2019-04-23T03:01:21.985Z,92.30
2019-04-23T03:08:47.052Z,92.40
2019-04-23T03:13:53.962Z,92.50
2019-04-23T03:16:38.141Z,92.50
2019-04-23T03:24:33.755Z,93.00
2019-04-23T03:29:40.514Z,92.90
2019-04-23T03:37:23.116Z,92.90
2019-04-23T03:39:54.714Z,92.80
2019-04-23T03:42:09.795Z,92.70
2019-04-23T03:44:40.425Z,92.60
2019-04-23T03:47:13.842Z,92.50
2019-04-23T03:49:41.079Z,92.40
2019-04-23T03:52:25.462Z,92.50
2019-04-23T03:57:21.961Z,92.70
2019-04-23T03:59:44.711Z,92.40
2019-04-23T04:02:37.633Z,92.60
2019-04-23T04:04:41.355Z,92.60
2019-04-23T04:07:22.613Z,92.60
2019-04-23T04:09:51.729Z,92.50
2019-04-23T04:12:25.468Z,92.70
2019-04-23T04:17:26.823Z,92.30
2019-04-23T04:32:22.146Z,92.40
2019-04-23T04:37:46.280Z,92.40
2019-04-23T04:42:14.727Z,92.30
2019-04-23T04:54:55.921Z,92.20
2019-04-23T04:57:37.227Z,92.30
2019-04-23T05:00:10.410Z,91.90
2019-04-23T05:02:43.662Z,91.80
2019-04-23T05:12:27.556Z,91.50
2019-04-23T05:15:04.568Z,91.30
2019-04-23T05:20:21.121Z,91.10
2019-04-23T05:22:59.467Z,90.90
2019-04-23T05:25:17.484Z,90.90
2019-04-23T05:30:22.627Z,90.80
2019-04-23T05:33:02.629Z,89.20
2019-04-23T05:35:39.935Z,87.40
2019-04-23T05:40:40.822Z,85.60
2019-04-23T05:42:52.004Z,84.20
2019-04-23T05:45:30.235Z,82.90
2019-04-23T05:48:09.700Z,83.00
2019-04-23T05:50:44.399Z,82.60
2019-04-23T05:53:05.330Z,81.60
2019-04-23T05:55:39.190Z,81.40
2019-04-23T05:58:15.393Z,79.90
2019-04-23T06:03:11.317Z,79.50
2019-04-23T06:08:11.608Z,79.10
2019-04-23T06:10:49.731Z,77.40
2019-04-23T06:13:11.986Z,77.10
2019-04-23T06:15:59.765Z,76.70
2019-04-23T06:18:16.844Z,76.20
2019-04-23T06:20:48.722Z,76.30
2019-04-23T06:23:25.012Z,75.90
2019-04-23T06:25:59.674Z,76.30
2019-04-23T06:30:54.389Z,73.60
2019-04-23T06:33:27.048Z,74.70
2019-04-23T06:35:54.838Z,73.70
2019-04-23T06:38:40.417Z,73.30
2019-04-23T06:40:55.391Z,72.30
2019-04-23T06:43:25.642Z,72.40
2019-04-23T06:45:49.549Z,71.50
2019-04-23T06:48:27.498Z,71.30
2019-04-23T06:51:07.841Z,71.00
2019-04-23T06:53:27.107Z,69.90
2019-04-23T06:56:04.525Z,70.90
2019-04-23T06:58:32.124Z,69.50
2019-04-23T07:01:00.392Z,69.40
2019-04-23T07:03:38.341Z,68.30
2019-04-23T07:09:04.397Z,71.10
2019-04-23T07:11:28.748Z,70.10
2019-04-23T07:16:09.897Z,70.70
2019-04-23T07:18:41.518Z,70.10
2019-04-23T07:21:30.417Z,70.20
2019-04-23T07:24:06.849Z,70.50
2019-04-23T07:29:17.806Z,68.50
2019-04-23T07:34:18.491Z,66.70
2019-04-23T07:39:19.097Z,65.80
2019-04-23T07:41:54.850Z,67.80
2019-04-23T07:44:29.780Z,64.20
2019-04-23T07:47:07.417Z,65.60
2019-04-23T07:49:23.434Z,63.00
2019-04-23T07:52:04.813Z,64.60
2019-04-23T07:54:29.057Z,64.00
2019-04-23T07:57:07.600Z,64.60
2019-04-23T08:01:58.144Z,62.20
2019-04-23T08:04:35.169Z,63.80
2019-04-23T08:07:01.201Z,61.90
2019-04-23T08:09:34.101Z,62.90
2019-04-23T08:12:13.773Z,61.10
2019-04-23T08:14:40.830Z,61.20
2019-04-23T08:17:07.400Z,60.20
2019-04-23T08:19:47.876Z,59.20
2019-04-23T08:22:20.063Z,60.20
2019-04-23T08:24:47.056Z,60.90
2019-04-23T08:27:12.940Z,59.90
2019-04-23T08:29:40.383Z,59.00
2019-04-23T08:42:32.618Z,60.00
2019-04-23T08:45:03.116Z,60.00
2019-04-23T08:47:27.672Z,60.10
2019-04-23T08:52:27.190Z,60.90
2019-04-23T08:57:30.740Z,60.80
2019-04-23T09:00:18.650Z,61.10
2019-04-23T09:07:53.736Z,60.20
2019-04-23T09:10:15.852Z,61.40
2019-04-23T09:12:36.640Z,60.70
2019-04-23T09:15:12.362Z,61.10
2019-04-23T09:17:44.412Z,61.90
2019-04-23T09:22:38.629Z,62.30
2019-04-23T09:25:11.657Z,61.80
2019-04-23T09:27:40.124Z,60.00
2019-04-23T09:30:12.541Z,62.00
2019-04-23T09:32:47.319Z,60.50
2019-04-23T09:35:26.677Z,60.90
2019-04-23T09:38:11.505Z,59.90
2019-04-23T09:41:08.733Z,60.00
2019-04-23T09:43:27.752Z,59.60
2019-04-23T09:46:04.761Z,60.70
2019-04-23T09:48:35.503Z,60.10
2019-04-23T09:51:03.217Z,59.40
2019-04-23T09:55:59.844Z,60.30
2019-04-23T09:58:34.616Z,58.80
2019-04-23T10:03:46.288Z,60.30
2019-04-23T10:06:13.980Z,59.60
2019-04-23T10:08:42.911Z,58.50
2019-04-23T10:11:09.293Z,59.80
2019-04-23T10:13:38.714Z,58.50
2019-04-23T10:16:11.693Z,58.70
2019-04-23T10:18:39.335Z,59.40
2019-04-23T10:21:08.559Z,58.60
2019-04-23T10:23:38.992Z,59.20
2019-04-23T10:26:08.231Z,57.90
2019-04-23T10:28:40.244Z,58.10
2019-04-23T10:31:09.470Z,58.90
2019-04-23T10:33:39.851Z,58.10
2019-04-23T10:36:13.081Z,58.90
2019-04-23T10:38:41.645Z,58.60
2019-04-23T10:41:12.029Z,58.70
2019-04-23T10:43:44.566Z,58.60
2019-04-23T10:46:43.099Z,59.30
2019-04-23T10:52:11.604Z,58.10
2019-04-23T10:57:16.186Z,58.40
2019-04-23T10:59:40.369Z,57.40
2019-04-23T11:05:09.098Z,58.90
2019-04-23T11:09:59.570Z,58.20
2019-04-23T11:12:39.234Z,58.60
2019-04-23T11:15:09.292Z,57.40
2019-04-23T11:17:38.451Z,58.50
2019-04-23T11:20:09.674Z,57.30
2019-04-23T11:25:15.395Z,58.20
2019-04-23T11:27:36.284Z,56.70
2019-04-23T11:30:10.073Z,57.70
2019-04-23T11:38:13.739Z,57.70
2019-04-23T11:40:09.001Z,57.40
2019-04-23T11:42:47.746Z,55.90
2019-04-23T11:45:14.510Z,57.60
2019-04-23T11:48:13.768Z,57.50
2019-04-23T11:50:23.342Z,58.10
2019-04-23T11:55:30.840Z,56.80
2019-04-23T11:57:54.328Z,56.90
2019-04-23T12:00:17.604Z,57.70
2019-04-23T12:02:49.667Z,55.50
2019-04-23T12:05:45.810Z,57.20
2019-04-23T12:08:30.132Z,55.30
2019-04-23T12:11:24.165Z,56.50
2019-04-23T12:13:35.527Z,57.30
2019-04-23T12:16:00.565Z,55.50
2019-04-23T12:18:31.972Z,57.00
2019-04-23T12:21:15.917Z,56.40
2019-04-23T12:23:51.996Z,56.60
2019-04-23T12:26:19.741Z,55.00
2019-04-23T12:28:44.051Z,54.50
2019-04-23T12:31:16.175Z,56.00
2019-04-23T12:36:45.591Z,55.60
2019-04-23T12:39:15.437Z,56.30
2019-04-23T12:41:35.874Z,55.30
2019-04-23T12:44:11.039Z,54.70
2019-04-23T12:46:45.674Z,55.00
2019-04-23T12:49:25.025Z,54.40
2019-04-23T12:51:47.363Z,54.90
2019-04-23T12:54:21.630Z,54.40
2019-04-23T12:56:51.399Z,55.10
2019-04-23T12:59:27.167Z,54.90
2019-04-23T13:02:03.635Z,53.90
2019-04-23T13:04:43.920Z,54.50
2019-04-23T13:07:11.464Z,53.90
2019-04-23T13:09:52.546Z,54.90
2019-04-23T13:12:33.301Z,54.50
2019-04-23T13:17:30.013Z,53.50
2019-04-23T13:19:55.552Z,54.40
2019-04-23T13:22:23.501Z,54.30
2019-04-23T13:24:53.890Z,52.90
2019-04-23T13:27:54.361Z,53.20
2019-04-23T13:30:23.192Z,53.00
2019-04-23T13:32:57.530Z,53.30
2019-04-23T13:35:42.028Z,53.60
2019-04-23T13:37:54.799Z,53.40
2019-04-23T13:40:24.502Z,52.90
2019-04-23T13:42:57.148Z,53.10
2019-04-23T13:45:47.086Z,54.40
2019-04-23T13:48:06.992Z,53.50
2019-04-23T13:50:37.113Z,53.80
2019-04-23T13:55:22.821Z,54.30
2019-04-23T14:02:56.098Z,54.80
2019-04-23T14:05:33.251Z,54.60
2019-04-23T14:08:11.756Z,52.80
2019-04-23T14:10:43.443Z,53.60
2019-04-23T14:13:30.521Z,53.70
2019-04-23T14:18:43.344Z,53.70
2019-04-23T14:20:52.681Z,52.20
2019-04-23T14:26:01.600Z,52.50
2019-04-23T14:28:22.099Z,54.10
2019-04-23T14:30:53.929Z,52.70
2019-04-23T14:33:23.251Z,53.00
2019-04-23T14:41:05.431Z,52.80
2019-04-23T14:43:30.905Z,52.70
2019-04-23T14:46:25.115Z,52.50
2019-04-23T14:48:21.059Z,52.10
2019-04-23T14:51:02.370Z,51.70
2019-04-23T14:53:33.718Z,52.00
2019-04-23T14:56:00.370Z,52.40
2019-04-23T15:03:43.754Z,51.80
2019-04-23T15:06:25.308Z,51.30
2019-04-23T15:08:58.634Z,50.10
2019-04-23T15:11:20.795Z,51.10
2019-04-23T15:16:17.011Z,51.00
2019-04-23T15:18:53.040Z,50.00
2019-04-23T15:28:30.376Z,50.80
2019-04-23T15:34:00.939Z,50.80
2019-04-23T15:36:38.814Z,50.80
2019-04-23T15:39:13.828Z,50.60
2019-04-23T15:49:08.257Z,49.80
2019-04-23T15:54:10.883Z,50.80
2019-04-23T15:56:35.828Z,50.60
2019-04-23T15:59:25.923Z,50.90
2019-04-23T16:03:33.846Z,50.20
2019-04-23T16:06:04.798Z,49.80
2019-04-23T16:11:41.186Z,49.80
2019-04-23T16:14:17.005Z,50.20
2019-04-23T16:16:37.325Z,48.80
2019-04-23T16:19:36.087Z,48.60
2019-04-23T16:32:08.888Z,50.70
2019-04-23T16:34:29.066Z,50.40
2019-04-23T16:36:59.510Z,50.80
2019-04-23T16:39:22.145Z,50.50
2019-04-23T16:42:06.392Z,50.50
2019-04-23T16:44:38.776Z,51.70
2019-04-23T16:47:04.431Z,51.80
2019-04-23T16:49:51.163Z,51.50
2019-04-23T16:52:03.165Z,52.50
2019-04-23T16:59:34.947Z,52.80
2019-04-23T17:02:16.044Z,52.80
2019-04-23T17:04:39.453Z,54.10
2019-04-23T17:09:48.185Z,55.00
2019-04-23T17:12:09.113Z,55.20
2019-04-23T17:14:42.047Z,56.10
2019-04-23T17:17:09.895Z,56.00
2019-04-23T17:19:48.353Z,56.80
2019-04-23T17:22:09.621Z,57.00
2019-04-23T17:24:39.948Z,56.90
2019-04-23T17:30:04.752Z,57.40
2019-04-23T17:32:27.940Z,58.00
2019-04-23T17:35:17.505Z,57.80
2019-04-23T17:37:53.766Z,58.50
2019-04-23T17:40:19.844Z,58.40
2019-04-23T17:42:48.403Z,59.20
2019-04-23T17:47:59.372Z,59.30
2019-04-23T17:50:38.047Z,59.90
2019-04-23T17:53:03.117Z,60.10
2019-04-23T17:55:32.503Z,60.70
2019-04-23T17:58:06.137Z,61.40
2019-04-23T18:00:36.564Z,62.10
2019-04-23T18:03:11.007Z,62.40
2019-04-23T18:05:33.303Z,63.00
2019-04-23T18:08:04.982Z,62.80
2019-04-23T18:10:40.974Z,63.10
2019-04-23T18:13:19.311Z,63.70
2019-04-23T18:15:46.225Z,64.10
2019-04-23T18:18:11.775Z,65.00
2019-04-23T18:21:13.252Z,65.20
2019-04-23T18:24:02.738Z,65.40
2019-04-23T18:26:46.242Z,65.70
2019-04-23T18:29:15.736Z,66.80
2019-04-23T18:32:01.101Z,66.90
2019-04-23T18:34:12.607Z,67.00
2019-04-23T18:36:53.828Z,67.40
2019-04-23T18:39:22.254Z,67.70
2019-04-23T18:42:01.922Z,68.40
2019-04-23T18:44:28.839Z,69.20
2019-04-23T18:47:15.521Z,69.40
2019-04-23T18:49:35.551Z,69.60
2019-04-23T18:51:59.847Z,69.70
2019-04-23T18:54:28.484Z,70.30
2019-04-23T18:57:09.037Z,70.40
2019-04-23T18:59:40.756Z,71.40
2019-04-23T19:02:29.630Z,71.50
2019-04-23T19:07:57.496Z,72.40
2019-04-23T19:13:02.578Z,73.30
2019-04-23T19:18:16.208Z,74.30
2019-04-23T19:20:46.420Z,74.80
2019-04-23T19:23:08.329Z,74.90
2019-04-23T19:25:31.868Z,75.40
2019-04-23T19:28:10.415Z,75.70
2019-04-23T19:30:46.112Z,75.90
2019-04-23T19:33:21.975Z,76.10
2019-04-23T19:43:18.078Z,76.90
2019-04-23T19:45:56.697Z,77.00
2019-04-23T19:53:29.045Z,78.10
2019-04-23T19:56:04.414Z,78.10
2019-04-23T19:58:34.504Z,78.30
2019-04-23T20:03:48.722Z,77.80
2019-04-23T20:06:16.559Z,77.80
2019-04-23T20:10:54.575Z,77.60
2019-04-23T20:13:41.122Z,78.50
2019-04-23T20:18:41.486Z,77.60
2019-04-23T20:21:00.878Z,77.80
2019-04-23T20:23:56.097Z,78.00
2019-04-23T20:33:55.161Z,79.70
2019-04-23T20:36:15.786Z,80.20
2019-04-23T20:41:21.288Z,80.60
2019-04-23T20:43:49.006Z,80.60
2019-04-23T20:46:14.950Z,80.90
2019-04-23T20:48:48.890Z,81.00
2019-04-23T20:51:16.217Z,81.30
2019-04-23T20:53:50.188Z,82.30
2019-04-23T20:56:47.736Z,81.70
2019-04-23T20:58:54.827Z,82.30
2019-04-23T21:01:30.581Z,82.70
2019-04-23T21:06:46.997Z,83.30
2019-04-23T21:11:24.475Z,84.10
2019-04-23T21:16:34.355Z,84.30
2019-04-23T21:18:55.391Z,84.70
2019-04-23T21:21:35.427Z,84.80
2019-04-23T21:24:03.767Z,85.00
2019-04-23T21:26:37.114Z,85.60
2019-04-23T21:29:02.594Z,85.90
2019-04-23T21:31:40.555Z,86.60
2019-04-23T21:36:39.913Z,88.00
2019-04-23T21:39:40.786Z,88.30
2019-04-23T21:42:41.012Z,88.90
2019-04-23T21:52:02.246Z,90.60
2019-04-23T21:54:30.710Z,91.00
2019-04-23T21:56:55.346Z,91.40
2019-04-23T21:59:28.632Z,91.40
2019-04-23T22:01:59.319Z,91.80
2019-04-23T22:04:34.213Z,92.00
2019-04-23T22:06:59.199Z,92.00
2019-04-23T22:09:35.329Z,92.00
2019-04-23T22:12:10.256Z,92.10
2019-04-23T22:14:39.998Z,92.20
2019-04-23T22:19:38.209Z,92.00
2019-04-23T22:22:00.829Z,92.00
2019-04-23T22:24:46.385Z,92.20
2019-04-23T22:27:06.208Z,92.20
2019-04-23T22:29:40.008Z,92.20
2019-04-23T22:32:04.403Z,92.20
2019-04-23T22:34:54.233Z,92.20
2019-04-23T22:39:52.398Z,92.20
2019-04-23T22:42:44.823Z,92.30
2019-04-23T22:47:25.123Z,92.20
2019-04-23T22:50:02.656Z,92.20
2019-04-23T22:52:31.422Z,92.30
2019-04-23T22:55:02.201Z,92.60
2019-04-23T22:57:53.230Z,92.80
2019-04-23T23:02:54.521Z,93.40
2019-04-23T23:07:57.885Z,93.60
2019-04-23T23:10:20.096Z,94.20
2019-04-23T23:15:14.903Z,94.10
2019-04-23T23:23:03.059Z,94.20
2019-04-23T23:25:25.158Z,94.40
2019-04-23T23:28:02.560Z,94.80
2019-04-23T23:30:21.372Z,94.20
2019-04-23T23:33:00.299Z,94.10
2019-04-23T23:35:34.817Z,94.20
2019-04-23T23:40:25.839Z,94.00
2019-04-23T23:45:25.629Z,94.20
2019-04-23T23:47:58.916Z,94.30
2019-04-23T23:50:35.142Z,94.40
2019-04-23T23:53:02.768Z,94.40
2019-04-23T23:55:27.453Z,94.50
2019-04-23T23:58:06.731Z,94.50
